createdAt,value
2023-06-18T00:01:31.945Z,8.00
2023-06-18T00:04:34.390Z,7.38
2023-06-18T00:07:36.246Z,7.17
2023-06-18T00:10:38.060Z,6.72
2023-06-18T00:13:39.713Z,6.93
2023-06-18T00:16:41.421Z,6.85
2023-06-18T00:19:43.093Z,8.18
2023-06-18T00:22:45.279Z,7.40
2023-06-18T00:25:46.920Z,6.63
2023-06-18T00:28:48.569Z,8.27
2023-06-18T00:31:50.273Z,7.55
2023-06-18T00:34:54.406Z,7.45
2023-06-18T00:37:57.299Z,7.87
2023-06-18T00:40:59.197Z,7.95
2023-06-18T00:44:00.907Z,7.25
2023-06-18T00:47:03.640Z,8.20
2023-06-18T00:50:06.974Z,7.25
2023-06-18T00:53:09.370Z,7.20
2023-06-18T00:56:11.434Z,7.22
2023-06-18T00:59:13.043Z,6.82
2023-06-18T01:02:14.689Z,7.22
2023-06-18T01:05:18.114Z,7.50
2023-06-18T01:08:24.341Z,7.97
2023-06-18T01:11:27.079Z,7.95
2023-06-18T01:14:32.100Z,7.90
2023-06-18T01:17:34.946Z,6.63
2023-06-18T01:20:43.994Z,8.18
2023-06-18T01:24:12.723Z,6.67
2023-06-18T01:27:17.593Z,6.93
2023-06-18T01:30:19.819Z,7.32
2023-06-18T01:33:22.616Z,7.65
2023-06-18T01:36:36.771Z,6.70
2023-06-18T01:40:15.870Z,7.57
2023-06-18T01:43:30.137Z,8.25
2023-06-18T01:46:31.898Z,7.75
2023-06-18T01:49:34.314Z,9.15
2023-06-18T01:52:42.116Z,7.50
2023-06-18T01:55:47.132Z,7.37
2023-06-18T01:58:48.892Z,7.88
2023-06-18T02:01:50.693Z,7.40
2023-06-18T02:04:52.526Z,7.05
2023-06-18T02:07:54.233Z,6.82
2023-06-18T02:10:55.885Z,6.90
2023-06-18T02:13:57.611Z,6.53
2023-06-18T02:17:00.283Z,7.15
2023-06-18T02:20:01.999Z,6.57
2023-06-18T02:23:04.302Z,6.65
2023-06-18T02:26:06.584Z,7.07
2023-06-18T02:29:08.243Z,6.38
2023-06-18T02:32:10.107Z,7.20
2023-06-18T02:35:11.743Z,7.13
2023-06-18T02:38:13.393Z,8.07
2023-06-18T02:41:15.145Z,6.50
2023-06-18T02:44:16.814Z,7.35
2023-06-18T02:47:18.659Z,7.95
2023-06-18T02:50:21.412Z,6.97
2023-06-18T02:53:23.450Z,8.00
2023-06-18T02:56:25.131Z,7.27
2023-06-18T02:59:27.311Z,7.28
2023-06-18T03:02:29.033Z,7.93
2023-06-18T03:05:30.884Z,9.50
2023-06-18T03:08:32.489Z,7.72
2023-06-18T03:11:34.095Z,8.17
2023-06-18T03:14:35.830Z,7.55
2023-06-18T03:17:37.766Z,7.22
2023-06-18T03:20:39.549Z,6.65
2023-06-18T03:23:41.277Z,8.60
2023-06-18T03:26:44.783Z,7.30
2023-06-18T03:29:46.449Z,8.27
2023-06-18T03:32:48.327Z,7.78
2023-06-18T03:35:51.135Z,7.25
2023-06-18T03:38:52.876Z,7.07
2023-06-18T03:41:54.582Z,6.97
2023-06-18T03:44:56.200Z,9.00
2023-06-18T03:47:57.977Z,8.18
2023-06-18T03:50:59.625Z,7.82
2023-06-18T03:54:01.665Z,7.03
2023-06-18T03:57:03.401Z,7.23
2023-06-18T04:00:10.137Z,7.38
2023-06-18T04:03:11.851Z,7.47
2023-06-18T04:06:13.541Z,7.25
2023-06-18T04:09:15.706Z,8.75
2023-06-18T04:12:18.641Z,8.00
2023-06-18T04:15:20.322Z,7.72
2023-06-18T04:18:22.059Z,7.78
2023-06-18T04:21:23.747Z,8.00
2023-06-18T04:24:25.591Z,7.03
2023-06-18T04:27:27.277Z,7.93
2023-06-18T04:30:29.055Z,7.63
2023-06-18T04:33:30.839Z,6.95
2023-06-18T04:36:32.650Z,7.78
2023-06-18T04:39:35.800Z,7.20
2023-06-18T04:42:37.553Z,7.33
2023-06-18T04:45:39.189Z,7.90
2023-06-18T04:48:40.824Z,8.88
2023-06-18T04:51:44.525Z,9.07
2023-06-18T04:54:46.359Z,8.18
2023-06-18T04:57:47.982Z,6.93
2023-06-18T05:00:49.829Z,7.07
2023-06-18T05:03:51.554Z,7.28
2023-06-18T05:06:53.326Z,7.25
2023-06-18T05:09:54.951Z,7.50
2023-06-18T05:12:56.568Z,7.10
2023-06-18T05:15:58.239Z,7.03
2023-06-18T05:18:59.957Z,6.65
2023-06-18T05:22:01.610Z,7.03
2023-06-18T05:25:05.860Z,6.93
2023-06-18T05:28:07.577Z,6.87
2023-06-18T05:31:09.197Z,7.07
2023-06-18T05:34:11.137Z,6.93
2023-06-18T05:37:12.786Z,7.63
2023-06-18T05:40:14.554Z,8.35
2023-06-18T05:43:16.272Z,8.80
2023-06-18T05:46:18.616Z,7.55
2023-06-18T05:49:20.492Z,7.70
2023-06-18T05:52:22.100Z,8.52
2023-06-18T05:55:23.770Z,7.90
2023-06-18T05:58:25.736Z,7.07
2023-06-18T06:01:27.494Z,6.78
2023-06-18T06:04:29.232Z,6.70
2023-06-18T06:07:30.926Z,7.05
2023-06-18T06:10:32.889Z,7.00
2023-06-18T06:13:34.544Z,6.67
2023-06-18T06:16:36.269Z,7.22
2023-06-18T06:19:37.981Z,6.55
2023-06-18T06:22:39.874Z,6.45
2023-06-18T06:25:41.547Z,6.95
2023-06-18T06:28:43.173Z,7.97
2023-06-18T06:31:44.894Z,6.20
2023-06-18T06:34:48.140Z,6.57
2023-06-18T06:37:49.785Z,6.50
2023-06-18T06:40:51.404Z,6.45
2023-06-18T06:43:53.222Z,7.80
2023-06-18T06:46:54.916Z,6.30
2023-06-18T06:49:56.596Z,6.93
2023-06-18T06:52:58.261Z,6.90
2023-06-18T06:55:59.949Z,6.82
2023-06-18T06:59:01.601Z,7.10
2023-06-18T07:02:03.483Z,6.80
2023-06-18T07:05:08.059Z,7.07
2023-06-18T07:08:09.899Z,7.25
2023-06-18T07:11:11.849Z,6.90
2023-06-18T07:14:13.546Z,5.93
2023-06-18T07:17:15.292Z,7.75
2023-06-18T07:20:17.324Z,6.97
2023-06-18T07:23:19.149Z,5.80
2023-06-18T07:26:20.770Z,6.00
2023-06-18T07:29:22.515Z,6.30
2023-06-18T07:32:24.220Z,6.00
2023-06-18T07:35:25.854Z,6.07
2023-06-18T07:38:27.467Z,5.85
2023-06-18T07:41:29.202Z,6.18
2023-06-18T07:44:30.951Z,6.30
2023-06-18T07:47:32.633Z,5.40
2023-06-18T07:50:34.996Z,6.15
2023-06-18T07:53:36.769Z,5.40
2023-06-18T07:56:38.515Z,5.57
2023-06-18T07:59:40.525Z,5.23
2023-06-18T08:02:42.518Z,5.57
2023-06-18T08:05:44.426Z,5.22
2023-06-18T08:08:49.359Z,6.70
2023-06-18T08:11:51.109Z,5.85
2023-06-18T08:14:52.780Z,5.37
2023-06-18T08:17:54.592Z,5.50
2023-06-18T08:20:56.383Z,6.30
2023-06-18T08:23:58.054Z,5.10
2023-06-18T08:26:59.784Z,5.38
2023-06-18T08:30:01.445Z,5.27
2023-06-18T08:33:03.157Z,4.97
2023-06-18T08:36:05.134Z,5.32
2023-06-18T08:39:06.799Z,6.43
2023-06-18T08:42:10.138Z,5.90
2023-06-18T08:45:11.930Z,5.83
2023-06-18T08:48:27.268Z,5.75
2023-06-18T08:51:31.522Z,5.80
2023-06-18T08:54:34.673Z,6.50
2023-06-18T08:57:42.555Z,5.50
2023-06-18T09:00:44.846Z,7.53
2023-06-18T09:03:47.606Z,5.50
2023-06-18T09:06:49.852Z,5.70
2023-06-18T09:09:51.549Z,6.72
2023-06-18T09:12:53.300Z,6.07
2023-06-18T09:15:55.041Z,5.60
2023-06-18T09:18:57.584Z,5.63
2023-06-18T09:22:19.340Z,6.55
2023-06-18T09:25:22.924Z,6.53
2023-06-18T09:28:25.820Z,6.47
2023-06-18T09:31:27.521Z,7.90
2023-06-18T09:34:32.162Z,6.07
2023-06-18T09:37:33.994Z,5.97
2023-06-18T09:40:37.519Z,6.25
2023-06-18T09:43:42.186Z,6.28
2023-06-18T09:46:48.443Z,7.30
2023-06-18T09:49:50.207Z,6.30
2023-06-18T09:52:51.817Z,6.65
2023-06-18T09:55:53.539Z,7.57
2023-06-18T09:58:55.260Z,7.63
2023-06-18T10:01:57.468Z,8.00
2023-06-18T10:04:59.234Z,6.68
2023-06-18T10:08:08.166Z,6.95
2023-06-18T10:11:11.573Z,7.15
2023-06-18T10:14:13.825Z,7.70
2023-06-18T10:17:37.874Z,7.83
2023-06-18T10:20:41.891Z,7.53
2023-06-18T10:23:44.850Z,7.03
2023-06-18T10:26:47.191Z,6.18
2023-06-18T10:29:49.043Z,8.02
2023-06-18T10:32:51.886Z,6.70
2023-06-18T10:35:54.121Z,6.80
2023-06-18T10:38:57.975Z,7.53
2023-06-18T10:42:12.619Z,7.47
2023-06-18T10:45:16.330Z,6.90
2023-06-18T10:48:21.068Z,6.67
2023-06-18T10:51:22.724Z,7.50
2023-06-18T10:54:31.350Z,7.00
2023-06-18T10:57:37.311Z,6.93
2023-06-18T11:00:42.750Z,7.72
2023-06-18T11:03:44.471Z,7.43
2023-06-18T11:06:46.304Z,8.00
2023-06-18T11:09:59.584Z,7.15
2023-06-18T11:13:04.797Z,6.90
2023-06-18T11:16:06.471Z,7.57
2023-06-18T11:19:09.423Z,7.43
2023-06-18T11:22:12.007Z,7.03
2023-06-18T11:25:15.372Z,7.90
2023-06-18T11:28:17.779Z,8.05
2023-06-18T11:31:19.637Z,8.95
2023-06-18T11:34:21.434Z,7.27
2023-06-18T11:37:29.640Z,6.88
2023-06-18T11:40:31.309Z,8.13
2023-06-18T11:43:46.747Z,7.18
2023-06-18T11:46:48.487Z,7.80
2023-06-18T11:49:52.617Z,7.40
2023-06-18T11:52:54.302Z,7.43
2023-06-18T11:55:56.035Z,7.65
2023-06-18T11:58:59.226Z,7.10
2023-06-18T12:02:17.619Z,7.35
2023-06-18T12:05:19.295Z,7.10
2023-06-18T12:08:21.200Z,7.57
2023-06-18T12:11:32.956Z,7.88
2023-06-18T12:14:37.171Z,7.40
2023-06-18T12:17:38.793Z,7.65
2023-06-18T12:20:41.370Z,8.47
2023-06-18T12:23:43.266Z,7.00
2023-06-18T12:26:45.040Z,7.25
2023-06-18T12:29:46.829Z,7.43
2023-06-18T12:33:02.367Z,7.45
2023-06-18T12:36:05.395Z,7.40
2023-06-18T12:39:11.750Z,7.97
2023-06-18T12:42:13.953Z,8.80
2023-06-18T12:45:32.134Z,7.35
2023-06-18T12:48:43.774Z,7.47
2023-06-18T12:51:46.373Z,8.30
2023-06-18T12:54:48.222Z,9.23
2023-06-18T12:57:50.656Z,7.75
2023-06-18T13:00:54.823Z,7.38
2023-06-18T13:03:58.723Z,7.47
2023-06-18T13:07:00.483Z,8.07
2023-06-18T13:10:02.130Z,8.85
2023-06-18T13:13:03.775Z,8.07
2023-06-18T13:16:05.765Z,7.30
2023-06-18T13:19:08.978Z,7.63
2023-06-18T13:22:10.674Z,7.13
2023-06-18T13:25:13.391Z,7.38
2023-06-18T13:28:16.874Z,7.53
2023-06-18T13:31:18.520Z,7.63
2023-06-18T13:34:20.162Z,7.45
2023-06-18T13:37:21.929Z,8.47
2023-06-18T13:40:23.795Z,8.05
2023-06-18T13:43:25.391Z,7.40
2023-06-18T13:46:27.456Z,7.32
2023-06-18T13:49:29.156Z,8.82
2023-06-18T13:52:32.048Z,7.33
2023-06-18T13:55:33.772Z,6.97
2023-06-18T13:58:35.703Z,7.47
2023-06-18T14:01:37.869Z,7.63
2023-06-18T14:04:43.688Z,8.27
2023-06-18T14:07:45.434Z,7.60
2023-06-18T14:10:47.150Z,8.45
2023-06-18T14:13:49.272Z,8.73
2023-06-18T14:16:52.391Z,6.90
2023-06-18T14:19:55.170Z,7.88
2023-06-18T14:22:56.943Z,7.33
2023-06-18T14:25:58.624Z,8.43
2023-06-18T14:29:01.494Z,8.98
2023-06-18T14:32:03.742Z,8.23
2023-06-18T14:35:05.894Z,7.88
2023-06-18T14:38:07.571Z,7.40
2023-06-18T14:41:09.175Z,8.65
2023-06-18T14:44:11.008Z,7.53
2023-06-18T14:47:12.910Z,8.43
2023-06-18T14:50:15.461Z,6.90
2023-06-18T14:53:18.560Z,6.73
2023-06-18T14:56:21.152Z,7.28
2023-06-18T14:59:23.063Z,7.22
2023-06-18T15:02:29.592Z,7.40
2023-06-18T15:05:31.919Z,6.90
2023-06-18T15:08:33.510Z,7.10
2023-06-18T15:11:35.256Z,6.85
2023-06-18T15:14:36.908Z,7.22
2023-06-18T15:17:38.521Z,7.25
2023-06-18T15:20:40.627Z,7.47
2023-06-18T15:23:42.383Z,7.70
2023-06-18T15:26:44.093Z,6.80
2023-06-18T15:29:46.657Z,7.90
2023-06-18T15:32:48.443Z,7.47
2023-06-18T15:35:51.213Z,6.32
2023-06-18T15:38:52.932Z,7.67
2023-06-18T15:41:54.549Z,7.43
2023-06-18T15:44:56.192Z,7.45
2023-06-18T15:47:57.969Z,6.60
2023-06-18T15:50:59.657Z,7.50
2023-06-18T15:54:01.334Z,14.83
2023-06-18T15:57:03.135Z,7.07
2023-06-18T16:00:07.089Z,7.30
2023-06-18T16:03:08.977Z,6.80
2023-06-18T16:06:10.607Z,7.60
2023-06-18T16:09:12.239Z,7.27
2023-06-18T16:12:13.933Z,8.65
2023-06-18T16:15:15.623Z,8.55
2023-06-18T16:18:19.008Z,6.53
2023-06-18T16:21:21.514Z,7.05
2023-06-18T16:24:23.258Z,7.17
2023-06-18T16:27:25.285Z,7.13
2023-06-18T16:30:28.366Z,8.20
2023-06-18T16:33:30.025Z,7.82
2023-06-18T16:36:34.427Z,8.38
2023-06-18T16:39:37.665Z,7.17
2023-06-18T16:42:39.298Z,7.28
2023-06-18T16:45:41.842Z,7.22
2023-06-18T16:48:43.520Z,9.65
2023-06-18T16:51:46.780Z,7.35
2023-06-18T16:54:48.810Z,9.30
2023-06-18T16:57:54.756Z,8.60
2023-06-18T17:00:57.274Z,7.82
2023-06-18T17:03:59.469Z,7.22
2023-06-18T17:07:01.085Z,7.13
2023-06-18T17:10:02.846Z,7.23
2023-06-18T17:13:04.544Z,7.70
2023-06-18T17:16:07.402Z,7.55
2023-06-18T17:19:09.764Z,8.07
2023-06-18T17:22:11.584Z,8.15
2023-06-18T17:25:13.236Z,7.80
2023-06-18T17:28:15.036Z,8.80
2023-06-18T17:31:16.663Z,7.88
2023-06-18T17:34:18.385Z,7.78
2023-06-18T17:37:21.319Z,7.15
2023-06-18T17:40:22.954Z,7.53
2023-06-18T17:43:25.257Z,8.10
2023-06-18T17:46:26.996Z,7.43
2023-06-18T17:49:28.726Z,8.43
2023-06-18T17:52:30.349Z,7.53
2023-06-18T17:55:34.324Z,8.57
2023-06-18T17:58:36.398Z,8.25
2023-06-18T18:01:38.090Z,7.88
2023-06-18T18:04:39.833Z,8.35
2023-06-18T18:07:41.457Z,7.43
2023-06-18T18:10:43.483Z,9.70
2023-06-18T18:13:45.795Z,9.02
2023-06-18T18:16:49.090Z,8.93
2023-06-18T18:19:50.925Z,8.10
2023-06-18T18:22:52.724Z,9.18
2023-06-18T18:26:02.651Z,10.20
2023-06-18T18:29:12.055Z,7.50
2023-06-18T18:32:13.662Z,8.80
2023-06-18T18:35:15.343Z,7.80
2023-06-18T18:38:17.021Z,9.73
2023-06-18T18:41:18.675Z,7.80
2023-06-18T18:44:20.282Z,9.70
2023-06-18T18:47:22.012Z,8.30
2023-06-18T18:50:24.169Z,8.40
2023-06-18T18:53:26.092Z,9.95
2023-06-18T18:56:27.821Z,9.43
2023-06-18T18:59:29.489Z,9.30
2023-06-18T19:02:31.525Z,9.07
2023-06-18T19:05:33.862Z,9.90
2023-06-18T19:08:35.904Z,9.63
2023-06-18T19:11:37.652Z,9.13
2023-06-18T19:14:39.991Z,9.93
2023-06-18T19:17:41.699Z,9.45
2023-06-18T19:20:43.429Z,9.10
2023-06-18T19:23:45.178Z,9.25
2023-06-18T19:26:46.803Z,9.73
2023-06-18T19:29:48.413Z,9.57
2023-06-18T19:32:50.245Z,9.48
2023-06-18T19:35:51.987Z,9.07
2023-06-18T19:38:53.623Z,10.50
2023-06-18T19:41:55.357Z,9.67
2023-06-18T19:44:57.000Z,9.73
2023-06-18T19:47:59.769Z,10.00
2023-06-18T19:51:01.480Z,9.27
2023-06-18T19:54:03.145Z,10.43
2023-06-18T19:57:05.175Z,9.80
2023-06-18T20:00:07.665Z,10.88
2023-06-18T20:03:09.461Z,10.65
2023-06-18T20:06:11.171Z,12.73
2023-06-18T20:09:13.922Z,12.73
2023-06-18T20:12:15.570Z,11.57
2023-06-18T20:15:17.325Z,16.65
2023-06-18T20:18:18.963Z,10.90
2023-06-18T20:21:22.042Z,10.20
2023-06-18T20:24:24.659Z,11.63
2023-06-18T20:27:27.695Z,11.33
2023-06-18T20:30:29.512Z,10.43
2023-06-18T20:33:31.239Z,10.35
2023-06-18T20:36:32.964Z,10.68
2023-06-18T20:39:35.032Z,13.15
2023-06-18T20:42:36.772Z,11.40
2023-06-18T20:45:38.522Z,11.35
2023-06-18T20:48:41.164Z,10.32
2023-06-18T20:51:42.849Z,11.02
2023-06-18T20:54:44.482Z,10.93
2023-06-18T20:57:46.162Z,9.53
2023-06-18T21:00:47.908Z,9.52
2023-06-18T21:03:51.357Z,11.70
2023-06-18T21:06:53.501Z,10.07
2023-06-18T21:09:55.111Z,9.27
2023-06-18T21:12:56.719Z,11.13
2023-06-18T21:15:58.319Z,10.07
2023-06-18T21:18:59.973Z,10.70
2023-06-18T21:22:03.310Z,9.55
2023-06-18T21:25:05.392Z,9.45
2023-06-18T21:28:07.190Z,9.60
2023-06-18T21:31:08.822Z,8.65
2023-06-18T21:34:10.433Z,9.27
2023-06-18T21:37:12.175Z,9.68
2023-06-18T21:40:14.898Z,10.32
2023-06-18T21:43:16.675Z,8.60
2023-06-18T21:46:18.353Z,9.85
2023-06-18T21:49:20.465Z,10.30
2023-06-18T21:52:22.086Z,9.75
2023-06-18T21:55:23.787Z,10.15
2023-06-18T21:58:25.414Z,10.23
2023-06-18T22:01:29.205Z,9.10
2023-06-18T22:04:30.844Z,9.70
2023-06-18T22:07:32.590Z,10.07
2023-06-18T22:10:34.318Z,9.68
2023-06-18T22:13:36.082Z,10.97
2023-06-18T22:16:37.752Z,9.93
2023-06-18T22:19:40.233Z,9.80
2023-06-18T22:22:42.546Z,9.98
2023-06-18T22:25:44.295Z,10.43
2023-06-18T22:28:45.912Z,9.90
2023-06-18T22:31:48.959Z,9.20
2023-06-18T22:34:50.569Z,10.85
2023-06-18T22:37:52.206Z,9.95
2023-06-18T22:40:53.975Z,10.05
2023-06-18T22:43:55.670Z,9.40
2023-06-18T22:46:57.307Z,9.15
2023-06-18T22:49:58.978Z,12.40
2023-06-18T22:53:00.659Z,9.60
2023-06-18T22:56:02.334Z,9.77
2023-06-18T22:59:04.095Z,9.80
2023-06-18T23:02:06.911Z,10.30
2023-06-18T23:05:08.982Z,9.52
2023-06-18T23:08:12.176Z,10.02
2023-06-18T23:11:13.830Z,9.73
2023-06-18T23:14:18.897Z,9.30
2023-06-18T23:17:20.635Z,9.93
2023-06-18T23:20:22.550Z,11.13
2023-06-18T23:23:29.645Z,10.82
2023-06-18T23:26:31.580Z,9.68
2023-06-18T23:29:38.956Z,9.87
2023-06-18T23:32:40.703Z,9.35
2023-06-18T23:35:44.437Z,9.18
2023-06-18T23:38:46.088Z,10.85
2023-06-18T23:41:47.672Z,11.57
2023-06-18T23:44:49.349Z,10.17
2023-06-18T23:47:51.085Z,9.43
2023-06-18T23:50:52.764Z,9.32
2023-06-18T23:53:54.491Z,9.40
2023-06-18T23:56:56.159Z,10.77
2023-06-18T23:59:57.783Z,10.60
